createdAt,value
2023-09-19T00:02:17.829Z,20.50
2023-09-19T00:05:20.477Z,20.50
2023-09-19T00:08:26.130Z,20.50
2023-09-19T00:11:28.708Z,20.50
2023-09-19T00:14:31.013Z,20.50
2023-09-19T00:17:33.426Z,20.50
2023-09-19T00:20:44.060Z,20.40
2023-09-19T00:23:46.892Z,20.40
2023-09-19T00:26:49.211Z,20.40
2023-09-19T00:29:51.635Z,20.40
2023-09-19T00:32:56.529Z,20.40
2023-09-19T00:35:59.089Z,20.40
2023-09-19T00:39:01.269Z,20.20
2023-09-19T00:42:06.402Z,20.20
2023-09-19T00:45:13.300Z,20.20
2023-09-19T00:48:18.569Z,20.20
2023-09-19T00:51:23.579Z,20.10
2023-09-19T00:54:27.061Z,20.10
2023-09-19T00:57:29.258Z,20.20
2023-09-19T01:00:35.226Z,20.10
2023-09-19T01:03:39.281Z,20.10
2023-09-19T01:06:41.584Z,20.20
2023-09-19T01:09:43.838Z,20.20
2023-09-19T01:12:49.001Z,20.10
2023-09-19T01:16:04.391Z,20.10
2023-09-19T01:19:34.438Z,20.10
2023-09-19T01:22:36.627Z,20.10
2023-09-19T01:26:07.696Z,20.00
2023-09-19T01:29:36.080Z,19.90
2023-09-19T01:32:40.432Z,19.90
2023-09-19T01:35:42.745Z,19.90
2023-09-19T01:38:45.004Z,19.90
2023-09-19T01:41:58.804Z,19.90
2023-09-19T01:45:10.323Z,19.90
2023-09-19T01:48:43.703Z,20.00
2023-09-19T01:52:06.727Z,20.00
2023-09-19T01:55:11.598Z,20.00
2023-09-19T01:58:27.387Z,19.90
2023-09-19T02:01:30.421Z,19.90
2023-09-19T02:04:36.209Z,19.90
2023-09-19T02:07:39.587Z,19.80
2023-09-19T02:10:42.619Z,19.80
2023-09-19T02:13:44.940Z,19.80
2023-09-19T02:16:47.348Z,19.80
2023-09-19T02:19:49.610Z,19.80
2023-09-19T02:22:51.811Z,19.80
2023-09-19T02:25:55.233Z,19.70
2023-09-19T02:28:57.414Z,19.60
2023-09-19T02:32:00.091Z,19.60
2023-09-19T02:35:02.508Z,19.60
2023-09-19T02:38:07.826Z,19.60
2023-09-19T02:41:10.098Z,19.60
2023-09-19T02:44:12.352Z,19.60
2023-09-19T02:47:16.490Z,19.50
2023-09-19T02:50:19.126Z,19.50
2023-09-19T02:53:21.487Z,19.50
2023-09-19T02:56:23.878Z,19.50
2023-09-19T02:59:26.292Z,19.50
2023-09-19T03:02:29.241Z,19.50
2023-09-19T03:05:34.302Z,19.50
2023-09-19T03:08:37.909Z,19.40
2023-09-19T03:11:43.744Z,19.40
2023-09-19T03:14:45.932Z,19.40
2023-09-19T03:17:49.590Z,19.40
2023-09-19T03:20:58.052Z,19.30
2023-09-19T03:24:00.164Z,19.30
2023-09-19T03:27:02.407Z,19.20
2023-09-19T03:30:24.107Z,19.30
2023-09-19T03:33:26.364Z,19.20
2023-09-19T03:36:30.982Z,19.20
2023-09-19T03:39:33.179Z,19.20
2023-09-19T03:42:37.419Z,19.20
2023-09-19T03:45:39.854Z,19.20
2023-09-19T03:48:42.235Z,19.20
2023-09-19T03:51:44.411Z,19.20
2023-09-19T03:54:46.525Z,19.10
2023-09-19T03:57:51.794Z,19.10
2023-09-19T04:00:57.463Z,19.10
2023-09-19T04:03:59.789Z,19.10
2023-09-19T04:07:01.943Z,19.10
2023-09-19T04:10:04.636Z,19.10
2023-09-19T04:13:08.853Z,19.10
2023-09-19T04:16:11.867Z,19.10
2023-09-19T04:19:14.156Z,19.10
2023-09-19T04:22:16.675Z,19.00
2023-09-19T04:25:20.075Z,19.00
2023-09-19T04:28:22.291Z,19.00
2023-09-19T04:31:24.663Z,19.00
2023-09-19T04:34:28.695Z,18.90
2023-09-19T04:37:30.951Z,18.90
2023-09-19T04:40:34.772Z,18.90
2023-09-19T04:43:36.959Z,18.90
2023-09-19T04:46:39.150Z,18.90
2023-09-19T04:49:41.480Z,18.90
2023-09-19T04:52:46.903Z,18.90
2023-09-19T04:55:57.026Z,18.90
2023-09-19T04:59:00.203Z,18.90
2023-09-19T05:02:03.185Z,18.90
2023-09-19T05:05:06.358Z,18.80
2023-09-19T05:08:10.367Z,18.80
2023-09-19T05:11:12.599Z,18.90
2023-09-19T05:14:15.218Z,18.80
2023-09-19T05:17:18.434Z,18.80
2023-09-19T05:20:30.934Z,18.80
2023-09-19T05:23:34.085Z,18.80
2023-09-19T05:26:36.508Z,18.80
2023-09-19T05:29:43.431Z,18.80
2023-09-19T05:32:47.741Z,18.80
2023-09-19T05:35:49.984Z,18.80
2023-09-19T05:38:54.150Z,18.80
2023-09-19T05:41:58.275Z,18.70
2023-09-19T05:45:00.631Z,18.70
2023-09-19T05:48:17.068Z,18.70
2023-09-19T05:51:20.582Z,18.70
2023-09-19T05:54:23.687Z,18.80
2023-09-19T05:57:26.151Z,18.80
2023-09-19T06:00:28.774Z,18.70
2023-09-19T06:03:31.962Z,18.70
2023-09-19T06:06:40.240Z,18.70
2023-09-19T06:09:42.458Z,18.60
2023-09-19T06:12:47.926Z,18.60
2023-09-19T06:16:03.408Z,18.60
2023-09-19T06:19:10.267Z,18.60
2023-09-19T06:22:20.112Z,18.60
2023-09-19T06:25:23.696Z,18.60
2023-09-19T06:28:32.468Z,18.50
2023-09-19T06:31:47.324Z,18.60
2023-09-19T06:34:55.501Z,18.60
2023-09-19T06:37:59.787Z,18.70
2023-09-19T06:41:09.676Z,18.80
2023-09-19T06:44:12.111Z,18.90
2023-09-19T06:47:15.042Z,19.30
2023-09-19T06:50:21.201Z,19.80
2023-09-19T06:53:24.923Z,20.40
2023-09-19T06:56:27.162Z,20.80
2023-09-19T06:59:29.408Z,21.40
2023-09-19T07:02:32.770Z,22.00
2023-09-19T07:05:41.120Z,22.50
2023-09-19T07:08:44.640Z,23.20
2023-09-19T07:11:49.264Z,23.80
2023-09-19T07:14:53.406Z,24.40
2023-09-19T07:17:57.874Z,24.90
2023-09-19T07:21:06.388Z,25.50
2023-09-19T07:24:13.095Z,25.70
2023-09-19T07:27:17.898Z,26.10
2023-09-19T07:30:20.133Z,26.40
2023-09-19T07:33:23.358Z,27.10
2023-09-19T07:36:25.639Z,27.70
2023-09-19T07:39:28.448Z,28.10
2023-09-19T07:42:30.734Z,29.20
2023-09-19T07:45:33.627Z,30.00
2023-09-19T07:48:38.312Z,30.70
2023-09-19T07:51:41.535Z,31.20
2023-09-19T07:54:45.417Z,31.80
2023-09-19T07:57:50.553Z,31.60
2023-09-19T08:00:52.767Z,31.90
2023-09-19T08:03:55.185Z,32.60
2023-09-19T08:06:59.694Z,32.90
2023-09-19T08:10:04.834Z,33.40
2023-09-19T08:13:07.188Z,33.60
2023-09-19T08:16:09.536Z,34.30
2023-09-19T08:19:12.202Z,34.50
2023-09-19T08:22:14.340Z,34.50
2023-09-19T08:25:20.501Z,34.10
2023-09-19T08:28:25.834Z,33.60
2023-09-19T08:31:28.343Z,34.40
2023-09-19T08:34:34.406Z,35.30
2023-09-19T08:37:36.956Z,36.30
2023-09-19T08:40:41.567Z,36.60
2023-09-19T08:43:44.506Z,36.60
2023-09-19T08:46:48.051Z,36.70
2023-09-19T08:50:05.269Z,36.00
2023-09-19T08:53:13.757Z,35.70
2023-09-19T08:56:19.140Z,36.20
2023-09-19T08:59:25.833Z,36.00
2023-09-19T09:02:29.217Z,35.50
2023-09-19T09:05:33.567Z,36.00
2023-09-19T09:08:36.835Z,36.20
2023-09-19T09:11:41.510Z,37.20
2023-09-19T09:14:50.186Z,37.40
2023-09-19T09:17:57.216Z,37.20
2023-09-19T09:20:59.530Z,37.10
2023-09-19T09:24:21.993Z,37.40
2023-09-19T09:27:25.348Z,37.70
2023-09-19T09:30:38.850Z,37.80
2023-09-19T09:33:43.073Z,37.60
2023-09-19T09:36:50.692Z,37.00
2023-09-19T09:39:55.662Z,37.60
2023-09-19T09:43:00.408Z,37.90
2023-09-19T09:46:22.489Z,38.60
2023-09-19T09:49:35.350Z,38.90
2023-09-19T09:52:47.092Z,39.00
2023-09-19T09:56:01.189Z,39.00
2023-09-19T09:59:04.512Z,38.20
2023-09-19T10:02:08.764Z,37.80
2023-09-19T10:05:21.902Z,38.20
2023-09-19T10:08:24.207Z,38.30
2023-09-19T10:11:31.670Z,39.20
2023-09-19T10:14:39.723Z,39.50
2023-09-19T10:17:47.431Z,38.80
2023-09-19T10:20:52.004Z,38.60
2023-09-19T10:23:57.954Z,38.50
2023-09-19T10:27:01.731Z,39.10
2023-09-19T10:30:09.830Z,39.60
2023-09-19T10:33:14.187Z,40.00
2023-09-19T10:36:17.677Z,40.30
2023-09-19T10:39:21.175Z,40.40
2023-09-19T10:42:30.272Z,40.20
2023-09-19T10:45:37.056Z,40.20
2023-09-19T10:48:41.810Z,39.70
2023-09-19T10:51:48.398Z,39.50
2023-09-19T10:54:56.226Z,39.60
2023-09-19T10:58:01.831Z,39.00
2023-09-19T11:01:08.507Z,39.20
2023-09-19T11:04:29.915Z,38.80
2023-09-19T11:07:36.752Z,38.40
2023-09-19T11:10:55.617Z,38.30
2023-09-19T11:14:17.559Z,38.00
2023-09-19T11:17:25.216Z,38.20
2023-09-19T11:20:42.893Z,38.10
2023-09-19T11:24:26.335Z,38.10
2023-09-19T11:27:28.866Z,38.80
2023-09-19T11:30:34.063Z,38.60
2023-09-19T11:33:38.574Z,38.50
2023-09-19T11:36:41.011Z,36.80
2023-09-19T11:40:15.053Z,34.80
2023-09-19T11:43:32.105Z,32.60
2023-09-19T11:46:53.489Z,31.70
2023-09-19T11:49:55.963Z,31.00
2023-09-19T11:52:59.584Z,30.10
2023-09-19T11:56:02.432Z,29.80
2023-09-19T11:59:05.011Z,29.20
2023-09-19T12:02:12.093Z,29.20
2023-09-19T12:05:14.469Z,29.50
2023-09-19T12:08:18.485Z,29.60
2023-09-19T12:11:21.975Z,29.70
2023-09-19T12:14:27.234Z,29.80
2023-09-19T12:17:42.495Z,29.20
2023-09-19T12:20:50.538Z,28.70
2023-09-19T12:24:00.808Z,27.90
2023-09-19T12:27:06.984Z,27.70
2023-09-19T12:30:24.498Z,27.80
2023-09-19T12:33:29.529Z,27.70
2023-09-19T12:36:31.853Z,27.40
2023-09-19T12:39:34.143Z,27.40
2023-09-19T12:42:44.244Z,27.20
2023-09-19T12:45:46.743Z,27.40
2023-09-19T12:49:13.531Z,27.50
2023-09-19T12:52:15.706Z,27.90
2023-09-19T12:55:29.123Z,28.20
2023-09-19T12:58:33.978Z,28.10
2023-09-19T13:01:41.649Z,28.30
2023-09-19T13:05:00.852Z,28.50
2023-09-19T13:08:20.075Z,28.70
2023-09-19T13:11:23.464Z,28.80
2023-09-19T13:14:32.643Z,28.80
2023-09-19T13:17:55.383Z,29.00
2023-09-19T13:21:13.711Z,29.00
2023-09-19T13:24:31.528Z,29.20
2023-09-19T13:27:34.122Z,29.00
2023-09-19T13:30:43.786Z,28.80
2023-09-19T13:33:49.758Z,28.40
2023-09-19T13:36:51.947Z,28.40
2023-09-19T13:39:54.967Z,28.40
2023-09-19T13:42:57.813Z,28.00
2023-09-19T13:46:00.249Z,27.50
2023-09-19T13:49:05.271Z,27.80
2023-09-19T13:52:08.672Z,28.20
2023-09-19T13:55:10.963Z,28.40
2023-09-19T13:58:13.957Z,28.50
2023-09-19T14:01:16.270Z,28.70
2023-09-19T14:04:18.406Z,28.80
2023-09-19T14:07:21.579Z,28.90
2023-09-19T14:10:23.829Z,28.80
2023-09-19T14:13:27.504Z,28.80
2023-09-19T14:16:32.372Z,28.70
2023-09-19T14:19:36.449Z,28.60
2023-09-19T14:22:38.912Z,28.60
2023-09-19T14:25:41.138Z,28.50
2023-09-19T14:28:43.776Z,28.40
2023-09-19T14:31:46.338Z,28.30
2023-09-19T14:34:48.670Z,28.30
2023-09-19T14:37:51.027Z,28.30
2023-09-19T14:41:04.342Z,28.40
2023-09-19T14:44:06.793Z,28.50
2023-09-19T14:47:09.031Z,28.40
2023-09-19T14:50:13.056Z,28.60
2023-09-19T14:53:15.352Z,28.60
2023-09-19T14:56:19.970Z,28.80
2023-09-19T14:59:22.443Z,28.90
2023-09-19T15:02:24.732Z,28.80
2023-09-19T15:05:31.369Z,28.90
2023-09-19T15:08:40.121Z,28.90
2023-09-19T15:11:42.483Z,28.70
2023-09-19T15:14:44.602Z,28.30
2023-09-19T15:17:47.678Z,28.20
2023-09-19T15:20:50.415Z,28.20
2023-09-19T15:23:52.627Z,28.20
2023-09-19T15:26:56.749Z,28.10
2023-09-19T15:30:00.545Z,28.10
2023-09-19T15:33:02.609Z,28.00
2023-09-19T15:36:08.905Z,27.90
2023-09-19T15:39:15.625Z,27.80
2023-09-19T15:42:17.881Z,27.80
2023-09-19T15:45:20.339Z,27.80
2023-09-19T15:48:22.904Z,27.90
2023-09-19T15:51:25.843Z,27.80
2023-09-19T15:54:28.958Z,27.70
2023-09-19T15:57:32.118Z,27.50
2023-09-19T16:00:37.716Z,27.60
2023-09-19T16:03:45.722Z,27.50
2023-09-19T16:06:48.373Z,27.40
2023-09-19T16:09:50.608Z,27.30
2023-09-19T16:12:52.795Z,27.40
2023-09-19T16:15:54.970Z,27.40
2023-09-19T16:19:04.488Z,27.30
2023-09-19T16:22:07.126Z,27.10
2023-09-19T16:25:12.860Z,27.00
2023-09-19T16:28:15.101Z,27.00
2023-09-19T16:31:17.572Z,26.80
2023-09-19T16:34:19.913Z,26.70
2023-09-19T16:37:22.140Z,26.60
2023-09-19T16:40:24.466Z,26.30
2023-09-19T16:43:27.732Z,26.20
2023-09-19T16:46:30.012Z,26.10
2023-09-19T16:49:32.651Z,26.10
2023-09-19T16:52:36.008Z,26.10
2023-09-19T16:55:39.773Z,26.10
2023-09-19T16:58:45.328Z,26.00
2023-09-19T17:01:47.708Z,25.90
2023-09-19T17:04:50.126Z,25.80
2023-09-19T17:07:53.635Z,25.70
2023-09-19T17:11:05.712Z,25.60
2023-09-19T17:14:10.728Z,25.50
2023-09-19T17:17:13.104Z,25.50
2023-09-19T17:20:15.475Z,25.40
2023-09-19T17:23:18.370Z,25.30
2023-09-19T17:26:23.124Z,25.30
2023-09-19T17:29:25.707Z,25.30
2023-09-19T17:32:28.967Z,25.30
2023-09-19T17:35:31.380Z,25.20
2023-09-19T17:38:33.857Z,25.10
2023-09-19T17:41:36.056Z,25.10
2023-09-19T17:44:39.248Z,25.00
2023-09-19T17:47:43.154Z,24.80
2023-09-19T17:50:45.987Z,24.70
2023-09-19T17:53:48.856Z,24.50
2023-09-19T17:56:51.197Z,24.40
2023-09-19T17:59:53.410Z,24.30
2023-09-19T18:02:56.099Z,24.10
2023-09-19T18:05:58.475Z,24.10
2023-09-19T18:09:02.302Z,24.10
2023-09-19T18:12:07.125Z,23.90
2023-09-19T18:15:09.799Z,23.90
2023-09-19T18:18:13.245Z,23.80
2023-09-19T18:21:16.111Z,23.70
2023-09-19T18:24:18.308Z,23.70
2023-09-19T18:27:21.697Z,23.60
2023-09-19T18:30:25.425Z,23.50
2023-09-19T18:33:30.898Z,23.30
2023-09-19T18:36:33.187Z,23.10
2023-09-19T18:39:35.720Z,23.00
2023-09-19T18:42:38.966Z,22.90
2023-09-19T18:45:42.229Z,22.90
2023-09-19T18:48:46.274Z,22.80
2023-09-19T18:51:48.930Z,22.80
2023-09-19T18:54:51.169Z,22.70
2023-09-19T18:57:53.656Z,22.60
2023-09-19T19:01:06.092Z,22.60
2023-09-19T19:04:08.853Z,22.60
2023-09-19T19:07:17.463Z,22.60
2023-09-19T19:10:21.221Z,22.50
2023-09-19T19:13:24.675Z,22.50
2023-09-19T19:16:28.110Z,22.50
2023-09-19T19:19:30.960Z,22.40
2023-09-19T19:22:33.597Z,22.30
2023-09-19T19:25:38.165Z,22.30
2023-09-19T19:28:42.098Z,22.20
2023-09-19T19:31:45.117Z,22.00
2023-09-19T19:34:48.600Z,22.00
2023-09-19T19:37:51.990Z,21.90
2023-09-19T19:41:03.234Z,21.90
2023-09-19T19:44:05.972Z,21.90
2023-09-19T19:47:09.272Z,21.90
2023-09-19T19:50:11.726Z,21.90
2023-09-19T19:53:13.966Z,21.80
2023-09-19T19:56:16.250Z,21.80
2023-09-19T19:59:19.374Z,21.80
2023-09-19T20:02:22.335Z,21.70
2023-09-19T20:05:24.674Z,21.80
2023-09-19T20:08:29.092Z,21.70
2023-09-19T20:11:32.323Z,21.60
2023-09-19T20:14:35.039Z,21.60
2023-09-19T20:17:41.145Z,21.60
2023-09-19T20:20:44.193Z,21.60
2023-09-19T20:23:47.283Z,21.60
2023-09-19T20:26:49.667Z,21.60
2023-09-19T20:29:51.931Z,21.50
2023-09-19T20:32:56.502Z,21.60
2023-09-19T20:36:00.629Z,21.60
2023-09-19T20:39:02.861Z,21.50
2023-09-19T20:42:05.350Z,21.50
2023-09-19T20:45:14.075Z,21.50
2023-09-19T20:48:17.893Z,21.50
2023-09-19T20:51:26.965Z,21.50
2023-09-19T20:54:29.220Z,21.50
2023-09-19T20:57:31.462Z,21.50
2023-09-19T21:00:35.020Z,21.50
2023-09-19T21:03:38.445Z,21.50
2023-09-19T21:06:41.024Z,21.50
2023-09-19T21:09:44.030Z,21.40
2023-09-19T21:12:46.370Z,21.30
2023-09-19T21:15:48.695Z,21.30
2023-09-19T21:18:51.122Z,21.20
2023-09-19T21:21:54.757Z,21.10
2023-09-19T21:24:57.019Z,21.10
2023-09-19T21:27:59.178Z,21.10
2023-09-19T21:31:05.397Z,21.20
2023-09-19T21:34:08.838Z,21.10
2023-09-19T21:37:15.164Z,21.10
2023-09-19T21:40:17.793Z,21.20
2023-09-19T21:43:20.486Z,21.10
2023-09-19T21:46:23.355Z,21.10
2023-09-19T21:49:26.206Z,21.10
2023-09-19T21:52:28.625Z,21.10
2023-09-19T21:55:31.873Z,21.10
2023-09-19T21:58:36.833Z,21.10
2023-09-19T22:01:40.641Z,21.10
2023-09-19T22:04:42.809Z,21.00
2023-09-19T22:07:46.524Z,20.90
2023-09-19T22:10:50.675Z,20.90
2023-09-19T22:13:53.834Z,20.80
2023-09-19T22:17:01.583Z,20.80
2023-09-19T22:20:05.211Z,20.80
2023-09-19T22:23:07.685Z,20.80
2023-09-19T22:26:14.434Z,20.70
2023-09-19T22:29:18.240Z,20.70
2023-09-19T22:32:20.605Z,20.70
2023-09-19T22:35:28.468Z,20.70
2023-09-19T22:38:30.759Z,20.70
2023-09-19T22:41:33.935Z,20.70
2023-09-19T22:44:37.717Z,20.60
2023-09-19T22:47:40.044Z,20.60
2023-09-19T22:50:54.530Z,20.60
2023-09-19T22:54:00.650Z,20.50
2023-09-19T22:57:03.782Z,20.50
2023-09-19T23:00:20.288Z,20.50
2023-09-19T23:03:23.867Z,20.50
2023-09-19T23:06:26.087Z,20.50
2023-09-19T23:09:29.574Z,20.40
2023-09-19T23:12:32.127Z,20.40
2023-09-19T23:15:39.645Z,20.40
2023-09-19T23:18:44.683Z,20.40
2023-09-19T23:21:53.073Z,20.40
2023-09-19T23:25:28.723Z,20.30
2023-09-19T23:28:34.323Z,20.30
2023-09-19T23:31:39.486Z,20.30
2023-09-19T23:34:42.692Z,20.20
2023-09-19T23:37:46.176Z,20.30
2023-09-19T23:40:52.160Z,20.20
2023-09-19T23:43:54.716Z,20.30
2023-09-19T23:46:57.476Z,20.20
2023-09-19T23:50:00.379Z,20.20
2023-09-19T23:53:07.538Z,20.10
2023-09-19T23:56:17.057Z,20.10
2023-09-19T23:59:25.707Z,20.20
